sensor_id;sensor_type;location;lat;lon;timestamp;pressure;altitude;pressure_sealevel;temperature;humidity
62849;BME280;48941;49.516;8.286;2023-06-14T00:00:00;99961.00;;;19.23;43.42
62849;BME280;48941;49.516;8.286;2023-06-14T00:02:30;99961.78;;;19.17;43.57
62849;BME280;48941;49.516;8.286;2023-06-14T00:04:58;99962.50;;;19.11;43.65
62849;BME280;48941;49.516;8.286;2023-06-14T00:07:37;99961.22;;;19.07;43.43
62849;BME280;48941;49.516;8.286;2023-06-14T00:10:10;99950.34;;;19.00;43.94
62849;BME280;48941;49.516;8.286;2023-06-14T00:12:39;99958.63;;;18.99;43.94
62849;BME280;48941;49.516;8.286;2023-06-14T00:15:08;99962.91;;;18.93;43.82
62849;BME280;48941;49.516;8.286;2023-06-14T00:17:37;99957.44;;;18.86;43.90
62849;BME280;48941;49.516;8.286;2023-06-14T00:20:06;99962.34;;;18.83;43.87
62849;BME280;48941;49.516;8.286;2023-06-14T00:22:34;99959.22;;;18.79;44.11
62849;BME280;48941;49.516;8.286;2023-06-14T00:25:04;99962.25;;;18.76;43.99
62849;BME280;48941;49.516;8.286;2023-06-14T00:27:53;99960.94;;;18.72;44.56
62849;BME280;48941;49.516;8.286;2023-06-14T00:30:22;99960.66;;;18.67;44.72
62849;BME280;48941;49.516;8.286;2023-06-14T00:32:50;99970.16;;;18.63;44.92
62849;BME280;48941;49.516;8.286;2023-06-14T00:35:19;99965.31;;;18.58;44.79
62849;BME280;48941;49.516;8.286;2023-06-14T00:37:47;99961.97;;;18.56;44.85
62849;BME280;48941;49.516;8.286;2023-06-14T00:40:15;99965.03;;;18.53;44.89
62849;BME280;48941;49.516;8.286;2023-06-14T00:42:43;99967.28;;;18.49;45.05
62849;BME280;48941;49.516;8.286;2023-06-14T00:45:11;99960.94;;;18.42;45.71
62849;BME280;48941;49.516;8.286;2023-06-14T00:47:41;99964.19;;;18.38;45.76
62849;BME280;48941;49.516;8.286;2023-06-14T00:50:11;99969.94;;;18.35;45.67
62849;BME280;48941;49.516;8.286;2023-06-14T00:52:39;99966.75;;;18.31;45.70
62849;BME280;48941;49.516;8.286;2023-06-14T00:55:08;99962.97;;;18.25;45.33
62849;BME280;48941;49.516;8.286;2023-06-14T00:57:36;99968.22;;;18.19;45.51
62849;BME280;48941;49.516;8.286;2023-06-14T01:00:07;99969.06;;;18.19;45.21
62849;BME280;48941;49.516;8.286;2023-06-14T01:02:36;99967.41;;;18.18;45.54
62849;BME280;48941;49.516;8.286;2023-06-14T01:05:07;99970.66;;;18.14;45.72
62849;BME280;48941;49.516;8.286;2023-06-14T01:07:46;99963.75;;;18.11;45.57
62849;BME280;48941;49.516;8.286;2023-06-14T01:10:29;99961.25;;;18.09;45.77
62849;BME280;48941;49.516;8.286;2023-06-14T01:13:07;99970.09;;;18.03;46.28
62849;BME280;48941;49.516;8.286;2023-06-14T01:15:37;99972.47;;;17.98;46.26
62849;BME280;48941;49.516;8.286;2023-06-14T01:18:06;99974.03;;;17.92;46.96
62849;BME280;48941;49.516;8.286;2023-06-14T01:20:36;99977.28;;;17.88;46.86
62849;BME280;48941;49.516;8.286;2023-06-14T01:23:06;99975.44;;;17.80;47.13
62849;BME280;48941;49.516;8.286;2023-06-14T01:25:34;99975.34;;;17.74;47.53
62849;BME280;48941;49.516;8.286;2023-06-14T01:28:05;99976.06;;;17.67;48.36
62849;BME280;48941;49.516;8.286;2023-06-14T01:30:37;99972.03;;;17.63;48.32
62849;BME280;48941;49.516;8.286;2023-06-14T01:33:05;99976.75;;;17.61;48.43
62849;BME280;48941;49.516;8.286;2023-06-14T01:35:33;99982.31;;;17.60;48.44
62849;BME280;48941;49.516;8.286;2023-06-14T01:38:02;99978.78;;;17.59;48.38
62849;BME280;48941;49.516;8.286;2023-06-14T01:40:33;99979.97;;;17.57;47.98
62849;BME280;48941;49.516;8.286;2023-06-14T01:43:03;99981.84;;;17.56;47.93
62849;BME280;48941;49.516;8.286;2023-06-14T01:45:32;99985.53;;;17.55;47.74
62849;BME280;48941;49.516;8.286;2023-06-14T01:48:00;99996.13;;;17.57;47.64
62849;BME280;48941;49.516;8.286;2023-06-14T01:50:29;99989.75;;;17.58;47.64
62849;BME280;48941;49.516;8.286;2023-06-14T01:52:58;99994.28;;;17.57;47.03
62849;BME280;48941;49.516;8.286;2023-06-14T01:55:26;99991.94;;;17.54;47.20
62849;BME280;48941;49.516;8.286;2023-06-14T01:57:55;99995.00;;;17.51;47.69
62849;BME280;48941;49.516;8.286;2023-06-14T02:00:25;99991.94;;;17.54;47.62
62849;BME280;48941;49.516;8.286;2023-06-14T02:02:53;99986.91;;;17.51;47.13
62849;BME280;48941;49.516;8.286;2023-06-14T02:05:21;99993.16;;;17.51;47.39
62849;BME280;48941;49.516;8.286;2023-06-14T02:07:49;99987.94;;;17.50;47.44
62849;BME280;48941;49.516;8.286;2023-06-14T02:10:17;99996.19;;;17.48;47.47
62849;BME280;48941;49.516;8.286;2023-06-14T02:12:45;99995.34;;;17.48;47.28
62849;BME280;48941;49.516;8.286;2023-06-14T02:15:14;99985.09;;;17.43;47.55
62849;BME280;48941;49.516;8.286;2023-06-14T02:17:44;99992.00;;;17.46;47.12
62849;BME280;48941;49.516;8.286;2023-06-14T02:20:13;99996.34;;;17.47;47.18
62849;BME280;48941;49.516;8.286;2023-06-14T02:22:42;99999.75;;;17.41;47.16
62849;BME280;48941;49.516;8.286;2023-06-14T02:25:10;99992.72;;;17.40;47.26
62849;BME280;48941;49.516;8.286;2023-06-14T02:27:37;99991.03;;;17.39;47.54
62849;BME280;48941;49.516;8.286;2023-06-14T02:30:06;99992.88;;;17.38;47.56
62849;BME280;48941;49.516;8.286;2023-06-14T02:32:36;99995.09;;;17.35;47.39
62849;BME280;48941;49.516;8.286;2023-06-14T02:35:04;99999.16;;;17.30;47.71
62849;BME280;48941;49.516;8.286;2023-06-14T02:37:32;99998.53;;;17.20;48.04
62849;BME280;48941;49.516;8.286;2023-06-14T02:40:01;100001.56;;;17.17;48.28
62849;BME280;48941;49.516;8.286;2023-06-14T02:42:30;100001.56;;;17.17;48.51
62849;BME280;48941;49.516;8.286;2023-06-14T02:44:58;99999.94;;;17.08;48.86
62849;BME280;48941;49.516;8.286;2023-06-14T02:47:25;100000.09;;;17.06;48.62
62849;BME280;48941;49.516;8.286;2023-06-14T02:49:55;99999.94;;;17.08;48.81
62849;BME280;48941;49.516;8.286;2023-06-14T02:52:23;100001.44;;;17.10;48.54
62849;BME280;48941;49.516;8.286;2023-06-14T02:54:51;100009.34;;;17.12;48.37
62849;BME280;48941;49.516;8.286;2023-06-14T02:57:21;99994.19;;;17.11;48.46
62849;BME280;48941;49.516;8.286;2023-06-14T02:59:49;99998.25;;;17.07;48.27
62849;BME280;48941;49.516;8.286;2023-06-14T03:02:18;100001.47;;;17.02;48.46
62849;BME280;48941;49.516;8.286;2023-06-14T03:04:46;99998.78;;;17.02;48.54
62849;BME280;48941;49.516;8.286;2023-06-14T03:07:15;100003.66;;;16.99;48.40
62849;BME280;48941;49.516;8.286;2023-06-14T03:09:48;100009.03;;;16.99;48.83
62849;BME280;48941;49.516;8.286;2023-06-14T03:12:16;99999.97;;;17.00;49.37
62849;BME280;48941;49.516;8.286;2023-06-14T03:14:44;100006.34;;;16.99;49.70
62849;BME280;48941;49.516;8.286;2023-06-14T03:17:13;100014.13;;;16.94;50.12
62849;BME280;48941;49.516;8.286;2023-06-14T03:19:43;100007.06;;;16.92;50.67
62849;BME280;48941;49.516;8.286;2023-06-14T03:22:11;100014.63;;;16.89;50.61
62849;BME280;48941;49.516;8.286;2023-06-14T03:24:40;100011.94;;;16.89;50.25
62849;BME280;48941;49.516;8.286;2023-06-14T03:27:09;100012.97;;;16.80;50.29
62849;BME280;48941;49.516;8.286;2023-06-14T03:29:39;100021.19;;;16.78;50.65
62849;BME280;48941;49.516;8.286;2023-06-14T03:32:08;100021.53;;;16.75;50.88
62849;BME280;48941;49.516;8.286;2023-06-14T03:34:36;100019.19;;;16.72;50.95
62849;BME280;48941;49.516;8.286;2023-06-14T03:37:04;100026.25;;;16.65;51.11
62849;BME280;48941;49.516;8.286;2023-06-14T03:39:32;100028.94;;;16.65;51.11
62849;BME280;48941;49.516;8.286;2023-06-14T03:42:02;100034.81;;;16.68;51.11
62849;BME280;48941;49.516;8.286;2023-06-14T03:44:30;100032.13;;;16.68;51.18
62849;BME280;48941;49.516;8.286;2023-06-14T03:46:57;100031.97;;;16.70;51.16
62849;BME280;48941;49.516;8.286;2023-06-14T03:49:25;100034.31;;;16.65;51.79
62849;BME280;48941;49.516;8.286;2023-06-14T03:51:53;100037.38;;;16.62;52.26
62849;BME280;48941;49.516;8.286;2023-06-14T03:54:21;100037.38;;;16.62;51.88
62849;BME280;48941;49.516;8.286;2023-06-14T03:57:10;100046.09;;;16.64;52.17
62849;BME280;48941;49.516;8.286;2023-06-14T03:59:38;100041.56;;;16.64;52.03
62849;BME280;48941;49.516;8.286;2023-06-14T04:02:07;100044.25;;;16.64;52.26
62849;BME280;48941;49.516;8.286;2023-06-14T04:04:35;100048.78;;;16.64;52.31
62849;BME280;48941;49.516;8.286;2023-06-14T04:07:04;100046.25;;;16.62;52.21
62849;BME280;48941;49.516;8.286;2023-06-14T04:09:32;100049.78;;;16.63;51.87
62849;BME280;48941;49.516;8.286;2023-06-14T04:12:00;100061.22;;;16.65;52.24
62849;BME280;48941;49.516;8.286;2023-06-14T04:14:30;100053.97;;;16.65;52.05
62849;BME280;48941;49.516;8.286;2023-06-14T04:16:59;100065.22;;;16.69;51.94
62849;BME280;48941;49.516;8.286;2023-06-14T04:19:27;100065.75;;;16.72;52.16
62849;BME280;48941;49.516;8.286;2023-06-14T04:21:55;100068.78;;;16.69;52.02
62849;BME280;48941;49.516;8.286;2023-06-14T04:24:23;100068.59;;;16.71;52.21
62849;BME280;48941;49.516;8.286;2023-06-14T04:26:59;100073.28;;;16.77;51.80
62849;BME280;48941;49.516;8.286;2023-06-14T04:29:29;100080.19;;;16.80;51.66
62849;BME280;48941;49.516;8.286;2023-06-14T04:31:58;100075.16;;;16.85;51.38
62849;BME280;48941;49.516;8.286;2023-06-14T04:34:28;100073.63;;;16.90;51.39
62849;BME280;48941;49.516;8.286;2023-06-14T04:36:58;100081.69;;;16.99;51.16
62849;BME280;48941;49.516;8.286;2023-06-14T04:39:27;100091.59;;;17.06;50.88
62849;BME280;48941;49.516;8.286;2023-06-14T04:41:55;100090.72;;;17.14;50.66
62849;BME280;48941;49.516;8.286;2023-06-14T04:44:28;100086.50;;;17.20;50.50
62849;BME280;48941;49.516;8.286;2023-06-14T04:46:58;100082.09;;;17.27;50.30
62849;BME280;48941;49.516;8.286;2023-06-14T04:49:26;100086.81;;;17.25;50.07
62849;BME280;48941;49.516;8.286;2023-06-14T04:51:57;100088.47;;;17.34;50.05
62849;BME280;48941;49.516;8.286;2023-06-14T04:54:26;100093.97;;;17.41;49.75
62849;BME280;48941;49.516;8.286;2023-06-14T04:56:53;100103.88;;;17.48;49.41
62849;BME280;48941;49.516;8.286;2023-06-14T04:59:21;100101.16;;;17.57;49.37
62849;BME280;48941;49.516;8.286;2023-06-14T05:01:52;100102.31;;;17.62;49.51
62849;BME280;48941;49.516;8.286;2023-06-14T05:04:20;100104.97;;;17.70;49.01
62849;BME280;48941;49.516;8.286;2023-06-14T05:06:49;100104.41;;;17.75;49.05
62849;BME280;48941;49.516;8.286;2023-06-14T05:09:16;100108.63;;;17.86;48.78
62849;BME280;48941;49.516;8.286;2023-06-14T05:11:44;100111.09;;;17.96;48.59
62849;BME280;48941;49.516;8.286;2023-06-14T05:14:14;100112.91;;;18.03;48.19
62849;BME280;48941;49.516;8.286;2023-06-14T05:16:42;100117.91;;;18.06;48.68
62849;BME280;48941;49.516;8.286;2023-06-14T05:19:11;100114.50;;;18.13;48.36
62849;BME280;48941;49.516;8.286;2023-06-14T05:21:39;100110.09;;;18.20;47.96
62849;BME280;48941;49.516;8.286;2023-06-14T05:24:09;100111.41;;;18.24;47.50
62849;BME280;48941;49.516;8.286;2023-06-14T05:26:38;100111.41;;;18.24;47.51
62849;BME280;48941;49.516;8.286;2023-06-14T05:29:05;100118.94;;;18.28;47.55
62849;BME280;48941;49.516;8.286;2023-06-14T05:31:33;100113.31;;;18.38;47.24
62849;BME280;48941;49.516;8.286;2023-06-14T05:34:02;100119.00;;;18.43;47.54
62849;BME280;48941;49.516;8.286;2023-06-14T05:36:31;100114.94;;;18.47;47.77
62849;BME280;48941;49.516;8.286;2023-06-14T05:38:59;100119.22;;;18.57;47.89
62849;BME280;48941;49.516;8.286;2023-06-14T05:41:29;100120.00;;;18.65;47.82
62849;BME280;48941;49.516;8.286;2023-06-14T05:43:57;100122.81;;;18.72;47.13
62849;BME280;48941;49.516;8.286;2023-06-14T05:46:26;100125.94;;;18.84;46.92
62849;BME280;48941;49.516;8.286;2023-06-14T05:48:55;100125.66;;;18.94;46.72
62849;BME280;48941;49.516;8.286;2023-06-14T05:51:23;100129.84;;;18.96;46.72
62849;BME280;48941;49.516;8.286;2023-06-14T05:53:54;100134.69;;;19.01;46.61
62849;BME280;48941;49.516;8.286;2023-06-14T05:56:22;100126.72;;;19.07;46.67
62849;BME280;48941;49.516;8.286;2023-06-14T05:58:50;100131.91;;;19.09;46.61
62849;BME280;48941;49.516;8.286;2023-06-14T06:01:18;100134.91;;;19.14;46.11
62849;BME280;48941;49.516;8.286;2023-06-14T10:05:05;100230.19;;;27.10;26.66
62849;BME280;48941;49.516;8.286;2023-06-14T10:07:36;100228.59;;;27.32;26.96
62849;BME280;48941;49.516;8.286;2023-06-14T10:10:06;100239.53;;;27.44;26.57
62849;BME280;48941;49.516;8.286;2023-06-14T10:12:34;100238.22;;;27.47;26.39
62849;BME280;48941;49.516;8.286;2023-06-14T10:15:04;100232.53;;;27.60;26.43
62849;BME280;48941;49.516;8.286;2023-06-14T10:17:38;100234.75;;;27.75;24.77
62849;BME280;48941;49.516;8.286;2023-06-14T10:20:18;100225.44;;;27.76;24.36
62849;BME280;48941;49.516;8.286;2023-06-14T10:22:51;100231.28;;;27.68;25.27
62849;BME280;48941;49.516;8.286;2023-06-14T10:25:28;100231.06;;;27.69;25.85
62849;BME280;48941;49.516;8.286;2023-06-14T10:28:05;100236.41;;;27.76;25.71
62849;BME280;48941;49.516;8.286;2023-06-14T10:31:04;100232.38;;;27.78;26.16
62849;BME280;48941;49.516;8.286;2023-06-14T10:33:33;100233.31;;;27.84;25.97
62849;BME280;48941;49.516;8.286;2023-06-14T10:36:09;100219.38;;;27.97;25.98
62849;BME280;48941;49.516;8.286;2023-06-14T10:38:37;100231.84;;;28.05;26.38
62849;BME280;48941;49.516;8.286;2023-06-14T10:41:06;100233.97;;;28.15;25.46
62849;BME280;48941;49.516;8.286;2023-06-14T10:43:34;100235.78;;;28.09;25.83
62849;BME280;48941;49.516;8.286;2023-06-14T10:46:14;100230.69;;;28.30;25.03
62849;BME280;48941;49.516;8.286;2023-06-14T10:48:42;100235.94;;;28.31;25.26
62849;BME280;48941;49.516;8.286;2023-06-14T10:51:19;100224.50;;;28.34;24.77
62849;BME280;48941;49.516;8.286;2023-06-14T10:53:48;100220.88;;;28.17;24.79
62849;BME280;48941;49.516;8.286;2023-06-14T10:56:32;100224.63;;;28.28;25.30
62849;BME280;48941;49.516;8.286;2023-06-14T10:59:01;100229.94;;;28.46;24.87
62849;BME280;48941;49.516;8.286;2023-06-14T11:01:36;100232.75;;;28.23;25.09
62849;BME280;48941;49.516;8.286;2023-06-14T11:04:07;100216.94;;;28.41;25.10
62849;BME280;48941;49.516;8.286;2023-06-14T11:06:45;100236.97;;;28.54;24.53
62849;BME280;48941;49.516;8.286;2023-06-14T11:09:43;100220.25;;;28.55;24.70
62849;BME280;48941;49.516;8.286;2023-06-14T11:12:17;100226.50;;;28.68;24.35
62849;BME280;48941;49.516;8.286;2023-06-14T11:14:46;100227.00;;;28.36;25.20
62849;BME280;48941;49.516;8.286;2023-06-14T11:17:15;100229.59;;;28.14;25.45
62849;BME280;48941;49.516;8.286;2023-06-14T11:19:43;100227.88;;;28.25;25.52
62849;BME280;48941;49.516;8.286;2023-06-14T11:22:13;100233.44;;;28.30;24.99
62849;BME280;48941;49.516;8.286;2023-06-14T11:24:43;100229.16;;;28.34;24.64
62849;BME280;48941;49.516;8.286;2023-06-14T11:27:10;100220.94;;;28.63;24.43
62849;BME280;48941;49.516;8.286;2023-06-14T11:29:47;100229.91;;;28.75;24.15
62849;BME280;48941;49.516;8.286;2023-06-14T11:32:15;100231.59;;;28.76;24.08
62849;BME280;48941;49.516;8.286;2023-06-14T11:34:46;100225.66;;;28.67;24.24
62849;BME280;48941;49.516;8.286;2023-06-14T11:37:15;100223.03;;;28.72;25.09
62849;BME280;48941;49.516;8.286;2023-06-14T11:39:43;100221.81;;;28.80;25.25
62849;BME280;48941;49.516;8.286;2023-06-14T11:42:13;100229.16;;;28.79;25.05
62849;BME280;48941;49.516;8.286;2023-06-14T11:44:41;100229.63;;;28.88;25.20
62849;BME280;48941;49.516;8.286;2023-06-14T11:47:09;100222.16;;;29.17;24.42
62849;BME280;48941;49.516;8.286;2023-06-14T11:49:37;100225.13;;;29.33;24.03
62849;BME280;48941;49.516;8.286;2023-06-14T11:52:05;100220.03;;;29.58;23.30
62849;BME280;48941;49.516;8.286;2023-06-14T11:54:34;100218.69;;;29.61;23.64
62849;BME280;48941;49.516;8.286;2023-06-14T11:57:04;100209.91;;;29.42;24.20
62849;BME280;48941;49.516;8.286;2023-06-14T11:59:32;100222.00;;;29.24;24.53
62849;BME280;48941;49.516;8.286;2023-06-14T12:02:00;100220.28;;;28.89;24.75
62849;BME280;48941;49.516;8.286;2023-06-14T12:04:30;100217.16;;;28.80;24.71
62849;BME280;48941;49.516;8.286;2023-06-14T12:07:08;100218.13;;;28.74;25.02
62849;BME280;48941;49.516;8.286;2023-06-14T12:10:06;100209.25;;;29.01;24.67
62849;BME280;48941;49.516;8.286;2023-06-14T12:12:36;100218.56;;;28.83;24.63
62849;BME280;48941;49.516;8.286;2023-06-14T12:15:06;100208.00;;;28.75;24.32
62849;BME280;48941;49.516;8.286;2023-06-14T12:17:35;100218.44;;;28.61;24.71
62849;BME280;48941;49.516;8.286;2023-06-14T12:20:06;100208.31;;;28.04;25.91
62849;BME280;48941;49.516;8.286;2023-06-14T12:22:47;100201.28;;;28.08;25.44
62849;BME280;48941;49.516;8.286;2023-06-14T12:25:26;100210.06;;;28.10;25.35
62849;BME280;48941;49.516;8.286;2023-06-14T12:27:55;100212.53;;;28.12;26.36
62849;BME280;48941;49.516;8.286;2023-06-14T12:30:23;100203.03;;;28.14;26.11
62849;BME280;48941;49.516;8.286;2023-06-14T12:32:50;100219.47;;;28.14;25.15
62849;BME280;48941;49.516;8.286;2023-06-14T12:35:19;100204.75;;;28.32;25.31
62849;BME280;48941;49.516;8.286;2023-06-14T12:37:46;100214.78;;;28.55;24.96
62849;BME280;48941;49.516;8.286;2023-06-14T12:40:14;100210.72;;;28.58;24.94
62849;BME280;48941;49.516;8.286;2023-06-14T12:42:44;100210.03;;;28.51;24.99
62849;BME280;48941;49.516;8.286;2023-06-14T12:45:13;100217.59;;;28.32;25.30
62849;BME280;48941;49.516;8.286;2023-06-14T12:47:42;100209.63;;;28.30;25.48
62849;BME280;48941;49.516;8.286;2023-06-14T12:50:10;100217.84;;;28.30;25.69
62849;BME280;48941;49.516;8.286;2023-06-14T12:52:37;100215.97;;;28.48;25.43
62849;BME280;48941;49.516;8.286;2023-06-14T12:55:06;100210.91;;;28.68;25.21
62849;BME280;48941;49.516;8.286;2023-06-14T12:57:34;100221.88;;;28.68;24.82
62849;BME280;48941;49.516;8.286;2023-06-14T13:00:08;100217.56;;;28.89;25.39
62849;BME280;48941;49.516;8.286;2023-06-14T13:02:36;100219.97;;;28.40;25.72
62849;BME280;48941;49.516;8.286;2023-06-14T13:05:05;100218.28;;;28.10;26.06
62849;BME280;48941;49.516;8.286;2023-06-14T13:07:33;100219.25;;;28.04;26.01
62849;BME280;48941;49.516;8.286;2023-06-14T13:10:01;100210.75;;;28.17;26.04
62849;BME280;48941;49.516;8.286;2023-06-14T13:12:29;100208.72;;;28.41;25.46
62849;BME280;48941;49.516;8.286;2023-06-14T13:14:57;100217.84;;;28.59;24.43
62849;BME280;48941;49.516;8.286;2023-06-14T13:17:26;100213.31;;;28.65;24.20
62849;BME280;48941;49.516;8.286;2023-06-14T13:19:54;100210.19;;;28.90;24.60
62849;BME280;48941;49.516;8.286;2023-06-14T13:22:22;100214.06;;;29.11;24.25
62849;BME280;48941;49.516;8.286;2023-06-14T13:24:50;100213.81;;;29.29;23.49
62849;BME280;48941;49.516;8.286;2023-06-14T13:27:18;100208.69;;;29.33;24.06
62849;BME280;48941;49.516;8.286;2023-06-14T13:29:46;100213.16;;;29.39;24.20
62849;BME280;48941;49.516;8.286;2023-06-14T13:32:13;100206.28;;;29.36;23.67
62849;BME280;48941;49.516;8.286;2023-06-14T13:34:43;100215.47;;;29.47;24.06
62849;BME280;48941;49.516;8.286;2023-06-14T13:37:10;100214.72;;;29.52;23.70
62849;BME280;48941;49.516;8.286;2023-06-14T13:39:38;100200.13;;;29.68;24.39
62849;BME280;48941;49.516;8.286;2023-06-14T13:42:07;100217.28;;;29.58;23.78
62849;BME280;48941;49.516;8.286;2023-06-14T13:44:35;100212.53;;;29.15;24.79
62849;BME280;48941;49.516;8.286;2023-06-14T13:47:03;100211.81;;;28.91;24.19
62849;BME280;48941;49.516;8.286;2023-06-14T13:49:31;100216.38;;;28.68;24.40
62849;BME280;48941;49.516;8.286;2023-06-14T13:52:02;100216.09;;;28.53;24.68
62849;BME280;48941;49.516;8.286;2023-06-14T13:54:30;100202.66;;;28.51;23.99
62849;BME280;48941;49.516;8.286;2023-06-14T13:56:58;100206.72;;;28.66;24.56
62849;BME280;48941;49.516;8.286;2023-06-14T13:59:26;100212.31;;;28.71;24.41
62849;BME280;48941;49.516;8.286;2023-06-14T14:01:54;100210.75;;;28.75;24.74
62849;BME280;48941;49.516;8.286;2023-06-14T14:04:22;100215.81;;;28.66;24.10
62849;BME280;48941;49.516;8.286;2023-06-14T14:06:50;100201.97;;;28.90;24.40
62849;BME280;48941;49.516;8.286;2023-06-14T14:09:19;100205.50;;;29.07;24.24
62849;BME280;48941;49.516;8.286;2023-06-14T14:11:47;100207.84;;;29.15;23.79
62849;BME280;48941;49.516;8.286;2023-06-14T14:14:15;100200.13;;;29.29;24.49
62849;BME280;48941;49.516;8.286;2023-06-14T14:16:43;100203.66;;;29.47;23.59
62849;BME280;48941;49.516;8.286;2023-06-14T14:19:11;100201.53;;;29.32;23.56
62849;BME280;48941;49.516;8.286;2023-06-14T14:21:38;100195.22;;;29.31;23.38
62849;BME280;48941;49.516;8.286;2023-06-14T14:24:07;100205.50;;;29.41;23.35
62849;BME280;48941;49.516;8.286;2023-06-14T14:26:36;100191.44;;;29.54;22.79
62849;BME280;48941;49.516;8.286;2023-06-14T14:29:04;100201.59;;;29.54;22.94
62849;BME280;48941;49.516;8.286;2023-06-14T14:31:32;100205.72;;;29.56;23.11
62849;BME280;48941;49.516;8.286;2023-06-14T14:33:59;100200.81;;;29.58;23.29
62849;BME280;48941;49.516;8.286;2023-06-14T14:36:27;100203.53;;;29.36;24.11
62849;BME280;48941;49.516;8.286;2023-06-14T14:38:59;100204.44;;;29.08;24.08
62849;BME280;48941;49.516;8.286;2023-06-14T14:41:27;100206.09;;;28.92;24.68
62849;BME280;48941;49.516;8.286;2023-06-14T14:43:56;100205.53;;;28.90;25.49
62849;BME280;48941;49.516;8.286;2023-06-14T14:46:25;100206.84;;;28.88;25.37
62849;BME280;48941;49.516;8.286;2023-06-14T14:48:53;100208.56;;;28.77;24.08
62849;BME280;48941;49.516;8.286;2023-06-14T14:51:21;100214.00;;;28.72;24.92
62849;BME280;48941;49.516;8.286;2023-06-14T14:53:49;100208.06;;;28.63;24.57
62849;BME280;48941;49.516;8.286;2023-06-14T14:56:21;100197.03;;;28.58;24.39
62849;BME280;48941;49.516;8.286;2023-06-14T14:58:48;100204.31;;;28.52;25.19
62849;BME280;48941;49.516;8.286;2023-06-14T15:01:18;100199.44;;;28.43;24.61
62849;BME280;48941;49.516;8.286;2023-06-14T15:03:46;100195.16;;;28.47;24.98
62849;BME280;48941;49.516;8.286;2023-06-14T15:06:16;100201.78;;;28.34;24.29
62849;BME280;48941;49.516;8.286;2023-06-14T15:08:45;100198.09;;;28.28;24.74
62849;BME280;48941;49.516;8.286;2023-06-14T15:11:13;100194.44;;;28.23;24.77
62849;BME280;48941;49.516;8.286;2023-06-14T15:13:40;100196.56;;;28.20;24.96
62849;BME280;48941;49.516;8.286;2023-06-14T15:16:08;100196.06;;;28.24;24.82
62849;BME280;48941;49.516;8.286;2023-06-14T15:18:38;100195.75;;;28.20;24.56
62849;BME280;48941;49.516;8.286;2023-06-14T15:21:07;100182.50;;;28.29;25.03
62849;BME280;48941;49.516;8.286;2023-06-14T15:23:36;100192.50;;;28.23;24.76
62849;BME280;48941;49.516;8.286;2023-06-14T15:26:04;100194.19;;;28.24;25.14
62849;BME280;48941;49.516;8.286;2023-06-14T15:28:32;100191.06;;;28.32;24.76
62849;BME280;48941;49.516;8.286;2023-06-14T15:31:00;100193.63;;;28.39;24.98
62849;BME280;48941;49.516;8.286;2023-06-14T15:33:28;100198.28;;;28.38;25.22
62849;BME280;48941;49.516;8.286;2023-06-14T15:35:57;100198.47;;;28.49;25.25
62849;BME280;48941;49.516;8.286;2023-06-14T15:38:25;100196.94;;;28.53;25.63
62849;BME280;48941;49.516;8.286;2023-06-14T15:40:53;100199.91;;;28.51;25.53
62849;BME280;48941;49.516;8.286;2023-06-14T15:43:21;100193.88;;;28.37;25.22
62849;BME280;48941;49.516;8.286;2023-06-14T15:45:49;100195.69;;;28.32;25.69
62849;BME280;48941;49.516;8.286;2023-06-14T15:48:17;100186.09;;;28.17;25.39
62849;BME280;48941;49.516;8.286;2023-06-14T15:50:46;100192.78;;;28.10;25.24
62849;BME280;48941;49.516;8.286;2023-06-14T15:53:15;100187.81;;;28.07;25.94
62849;BME280;48941;49.516;8.286;2023-06-14T15:55:43;100181.41;;;28.01;25.82
62849;BME280;48941;49.516;8.286;2023-06-14T15:58:11;100182.72;;;27.87;25.93
62849;BME280;48941;49.516;8.286;2023-06-14T16:00:39;100184.19;;;27.77;25.90
62849;BME280;48941;49.516;8.286;2023-06-14T16:03:06;100186.09;;;27.77;25.88
62849;BME280;48941;49.516;8.286;2023-06-14T16:05:35;100182.28;;;27.78;25.46
62849;BME280;48941;49.516;8.286;2023-06-14T16:08:03;100180.16;;;27.80;25.13
62849;BME280;48941;49.516;8.286;2023-06-14T16:10:33;100176.94;;;27.71;25.42
62849;BME280;48941;49.516;8.286;2023-06-14T16:13:01;100181.81;;;27.69;25.19
62849;BME280;48941;49.516;8.286;2023-06-14T16:15:29;100173.25;;;27.66;25.45
62849;BME280;48941;49.516;8.286;2023-06-14T16:17:56;100178.63;;;27.60;25.36
62849;BME280;48941;49.516;8.286;2023-06-14T16:20:25;100168.31;;;27.51;25.20
62849;BME280;48941;49.516;8.286;2023-06-14T16:22:53;100178.06;;;27.47;25.22
62849;BME280;48941;49.516;8.286;2023-06-14T16:25:21;100181.16;;;27.50;25.81
62849;BME280;48941;49.516;8.286;2023-06-14T16:27:50;100172.69;;;27.52;25.79
62849;BME280;48941;49.516;8.286;2023-06-14T16:30:18;100173.03;;;27.55;26.62
62849;BME280;48941;49.516;8.286;2023-06-14T16:32:46;100179.72;;;27.48;26.51
62849;BME280;48941;49.516;8.286;2023-06-14T16:35:18;100183.53;;;27.35;26.09
62849;BME280;48941;49.516;8.286;2023-06-14T16:37:46;100184.94;;;27.26;26.34
62849;BME280;48941;49.516;8.286;2023-06-14T16:40:14;100186.38;;;27.16;26.62
62849;BME280;48941;49.516;8.286;2023-06-14T16:42:42;100184.00;;;27.08;26.47
62849;BME280;48941;49.516;8.286;2023-06-14T16:45:11;100193.59;;;26.99;27.09
62849;BME280;48941;49.516;8.286;2023-06-14T16:47:39;100194.53;;;26.93;26.91
62849;BME280;48941;49.516;8.286;2023-06-14T16:50:08;100195.50;;;26.87;26.97
62849;BME280;48941;49.516;8.286;2023-06-14T16:52:36;100197.03;;;26.82;27.07
62849;BME280;48941;49.516;8.286;2023-06-14T16:55:04;100192.84;;;26.80;26.74
62849;BME280;48941;49.516;8.286;2023-06-14T16:57:32;100197.38;;;26.74;26.73
62849;BME280;48941;49.516;8.286;2023-06-14T17:00:00;100197.13;;;26.76;26.81
62849;BME280;48941;49.516;8.286;2023-06-14T17:02:31;100191.75;;;26.69;26.29
62849;BME280;48941;49.516;8.286;2023-06-14T17:05:00;100195.69;;;26.73;26.38